createdAt,value
2023-03-02T00:00:32.705Z,0.00
2023-03-02T00:01:32.687Z,0.00
2023-03-02T00:02:32.694Z,0.00
2023-03-02T00:03:32.693Z,0.00
2023-03-02T00:04:32.638Z,0.00
2023-03-02T00:05:32.616Z,0.00
2023-03-02T00:06:33.067Z,0.00
2023-03-02T00:07:32.615Z,0.00
2023-03-02T00:08:32.568Z,0.00
2023-03-02T00:09:32.551Z,0.00
2023-03-02T00:10:32.544Z,0.00
2023-03-02T00:11:32.555Z,0.00
2023-03-02T00:12:32.508Z,0.00
2023-03-02T00:13:32.479Z,0.00
2023-03-02T00:14:32.479Z,0.00
2023-03-02T00:15:32.519Z,0.00
2023-03-02T00:16:32.816Z,0.00
2023-03-02T00:17:32.413Z,0.00
2023-03-02T00:18:32.401Z,0.00
2023-03-02T00:19:32.376Z,0.00
2023-03-02T00:20:32.362Z,0.00
2023-03-02T00:21:32.342Z,0.00
2023-03-02T00:22:32.329Z,0.00
2023-03-02T00:23:32.308Z,0.00
2023-03-02T00:24:32.302Z,0.00
2023-03-02T00:25:32.273Z,0.00
2023-03-02T00:27:32.260Z,0.00
2023-03-02T00:28:32.221Z,0.00
2023-03-02T00:29:32.214Z,0.00
2023-03-02T00:30:32.190Z,0.00
2023-03-02T00:31:32.217Z,0.00
2023-03-02T00:32:32.252Z,0.00
2023-03-02T00:33:32.135Z,0.00
2023-03-02T00:34:32.124Z,0.00
2023-03-02T00:35:32.150Z,0.00
2023-03-02T00:36:32.111Z,0.00
2023-03-02T00:37:32.071Z,0.00
2023-03-02T00:38:32.048Z,0.00
2023-03-02T00:39:32.030Z,0.00
2023-03-02T00:40:32.018Z,0.00
2023-03-02T00:41:31.997Z,0.00
2023-03-02T00:42:31.981Z,0.00
2023-03-02T00:43:31.979Z,0.00
2023-03-02T00:44:31.942Z,0.00
2023-03-02T00:45:31.950Z,0.00
2023-03-02T00:46:32.372Z,0.00
2023-03-02T00:47:31.895Z,0.00
2023-03-02T00:48:31.873Z,0.00
2023-03-02T00:49:31.855Z,0.00
2023-03-02T00:50:31.840Z,0.00
2023-03-02T00:51:31.832Z,0.00
2023-03-02T00:52:31.805Z,0.00
2023-03-02T00:53:31.790Z,0.00
2023-03-02T00:54:31.771Z,0.00
2023-03-02T00:55:31.755Z,0.00
2023-03-02T00:56:32.083Z,0.00
2023-03-02T00:57:31.719Z,0.00
2023-03-02T00:58:31.705Z,0.00
2023-03-02T00:59:31.710Z,0.00
2023-03-02T01:00:31.675Z,0.00
2023-03-02T01:01:31.657Z,0.00
2023-03-02T01:02:31.794Z,0.00
2023-03-02T01:03:31.767Z,0.00
2023-03-02T01:04:31.609Z,0.00
2023-03-02T01:05:31.582Z,0.00
2023-03-02T01:06:31.946Z,0.00
2023-03-02T01:07:31.552Z,0.00
2023-03-02T01:08:31.549Z,0.00
2023-03-02T01:09:31.516Z,0.00
2023-03-02T01:10:31.517Z,0.00
2023-03-02T01:11:31.484Z,0.00
2023-03-02T01:12:31.469Z,0.00
2023-03-02T01:13:31.449Z,0.00
2023-03-02T01:14:31.435Z,0.00
2023-03-02T01:15:31.439Z,0.00
2023-03-02T01:16:31.855Z,0.00
2023-03-02T01:17:31.381Z,0.00
2023-03-02T01:18:31.367Z,0.00
2023-03-02T01:19:31.347Z,0.00
2023-03-02T01:20:31.336Z,0.00
2023-03-02T01:21:31.311Z,0.00
2023-03-02T01:22:31.300Z,0.00
2023-03-02T01:23:31.283Z,0.00
2023-03-02T01:24:31.266Z,0.00
2023-03-02T01:25:31.245Z,0.00
2023-03-02T01:26:31.543Z,0.00
2023-03-02T01:27:31.212Z,0.00
2023-03-02T01:28:31.196Z,0.00
2023-03-02T01:29:31.177Z,0.00
2023-03-02T01:30:31.165Z,0.00
2023-03-02T01:31:31.304Z,0.00
2023-03-02T01:32:31.176Z,0.00
2023-03-02T01:33:31.116Z,0.00
2023-03-02T01:34:31.103Z,0.00
2023-03-02T01:35:31.096Z,0.00
2023-03-02T01:36:31.451Z,0.00
2023-03-02T01:37:31.041Z,0.00
2023-03-02T01:38:31.102Z,0.00
2023-03-02T01:39:31.007Z,0.00
2023-03-02T01:40:30.990Z,0.00
2023-03-02T01:41:30.978Z,0.00
2023-03-02T01:42:30.958Z,0.00
2023-03-02T01:43:30.936Z,0.00
2023-03-02T01:44:30.924Z,0.00
2023-03-02T01:45:30.928Z,0.00
2023-03-02T01:46:31.177Z,0.00
2023-03-02T01:47:30.883Z,0.00
2023-03-02T01:48:30.854Z,0.00
2023-03-02T01:49:30.832Z,0.00
2023-03-02T01:50:30.817Z,0.00
2023-03-02T01:51:30.796Z,0.00
2023-03-02T01:52:30.784Z,0.00
2023-03-02T01:53:30.766Z,0.00
2023-03-02T01:54:30.750Z,0.00
2023-03-02T01:55:30.729Z,0.00
2023-03-02T01:56:31.146Z,0.00
2023-03-02T01:57:30.694Z,0.00
2023-03-02T01:58:30.684Z,0.00
2023-03-02T01:59:30.659Z,0.00
2023-03-02T02:00:30.645Z,0.00
2023-03-02T02:01:30.728Z,0.00
2023-03-02T02:02:30.611Z,0.00
2023-03-02T02:03:30.611Z,0.00
2023-03-02T02:04:30.594Z,0.00
2023-03-02T02:05:30.556Z,0.00
2023-03-02T02:06:31.033Z,0.00
2023-03-02T02:07:30.522Z,0.00
2023-03-02T02:08:30.508Z,0.00
2023-03-02T02:09:30.490Z,0.00
2023-03-02T02:10:30.473Z,0.00
2023-03-02T02:11:30.461Z,0.00
2023-03-02T02:12:30.442Z,0.00
2023-03-02T02:13:30.424Z,0.00
2023-03-02T02:14:30.438Z,0.00
2023-03-02T02:15:30.391Z,0.00
2023-03-02T02:16:31.028Z,0.00
2023-03-02T02:17:30.349Z,0.00
2023-03-02T02:18:30.335Z,0.00
2023-03-02T02:19:30.444Z,0.00
2023-03-02T02:20:30.310Z,0.00
2023-03-02T02:21:30.289Z,0.00
2023-03-02T02:22:30.269Z,0.00
2023-03-02T02:23:30.252Z,0.00
2023-03-02T02:24:30.234Z,0.00
2023-03-02T02:25:30.211Z,0.00
2023-03-02T02:26:30.814Z,0.00
2023-03-02T02:27:30.178Z,0.00
2023-03-02T02:28:30.164Z,0.00
2023-03-02T02:29:30.147Z,0.00
2023-03-02T02:30:30.129Z,0.00
2023-03-02T02:31:30.169Z,0.00
2023-03-02T02:32:30.119Z,0.00
2023-03-02T02:33:30.080Z,0.00
2023-03-02T02:34:30.060Z,0.00
2023-03-02T02:35:30.099Z,0.00
2023-03-02T02:36:30.361Z,0.00
2023-03-02T02:37:30.006Z,0.00
2023-03-02T02:38:29.992Z,0.00
2023-03-02T02:39:29.973Z,0.00
2023-03-02T02:40:29.958Z,0.00
2023-03-02T02:41:29.940Z,0.00
2023-03-02T02:42:29.926Z,0.00
2023-03-02T02:43:29.914Z,0.00
2023-03-02T02:44:29.889Z,0.00
2023-03-02T02:45:29.881Z,0.00
2023-03-02T02:46:30.053Z,0.00
2023-03-02T02:47:29.862Z,0.00
2023-03-02T02:48:29.820Z,0.00
2023-03-02T02:49:29.820Z,0.00
2023-03-02T02:50:29.790Z,0.00
2023-03-02T02:51:29.883Z,0.00
2023-03-02T02:52:29.770Z,0.00
2023-03-02T02:53:29.728Z,0.00
2023-03-02T02:54:29.728Z,0.00
2023-03-02T02:55:29.702Z,0.00
2023-03-02T02:56:29.895Z,0.00
2023-03-02T02:57:29.661Z,0.00
2023-03-02T02:58:29.654Z,0.00
2023-03-02T02:59:29.635Z,0.00
2023-03-02T03:00:29.618Z,0.00
2023-03-02T03:01:29.636Z,0.00
2023-03-02T03:02:29.593Z,0.00
2023-03-02T03:03:29.558Z,0.00
2023-03-02T03:04:29.620Z,0.00
2023-03-02T03:05:29.531Z,0.00
2023-03-02T03:06:29.859Z,0.00
2023-03-02T03:07:29.507Z,0.00
2023-03-02T03:08:29.474Z,0.00
2023-03-02T03:09:29.525Z,0.00
2023-03-02T03:10:29.437Z,0.00
2023-03-02T03:11:29.424Z,0.00
2023-03-02T03:12:29.403Z,0.00
2023-03-02T03:13:29.392Z,0.00
2023-03-02T03:14:29.404Z,0.00
2023-03-02T03:15:29.354Z,0.00
2023-03-02T03:16:29.564Z,0.00
2023-03-02T03:17:29.315Z,0.00
2023-03-02T03:18:29.300Z,0.00
2023-03-02T03:19:29.279Z,0.00
2023-03-02T03:20:29.264Z,0.00
2023-03-02T03:21:29.243Z,0.00
2023-03-02T03:22:29.230Z,0.00
2023-03-02T03:23:29.238Z,0.00
2023-03-02T03:24:29.193Z,0.00
2023-03-02T03:25:29.173Z,0.00
2023-03-02T03:26:29.162Z,0.00
2023-03-02T03:27:29.139Z,0.00
2023-03-02T03:28:29.121Z,0.00
2023-03-02T03:29:29.102Z,0.00
2023-03-02T03:30:29.103Z,0.00
2023-03-02T03:31:29.066Z,0.00
2023-03-02T03:32:29.171Z,0.00
2023-03-02T03:33:29.029Z,0.00
2023-03-02T03:34:29.018Z,0.00
2023-03-02T03:35:29.065Z,0.00
2023-03-02T03:36:28.981Z,0.00
2023-03-02T03:37:28.959Z,0.00
2023-03-02T03:38:28.945Z,0.00
2023-03-02T03:39:28.942Z,0.00
2023-03-02T03:40:28.914Z,0.00
2023-03-02T03:41:28.896Z,0.00
2023-03-02T03:42:28.879Z,0.00
2023-03-02T03:43:28.854Z,0.00
2023-03-02T03:44:28.849Z,0.00
2023-03-02T03:45:30.321Z,0.00
2023-03-02T03:46:28.854Z,0.00
2023-03-02T03:47:28.786Z,0.00
2023-03-02T03:48:28.787Z,0.00
2023-03-02T03:49:28.751Z,0.00
2023-03-02T03:50:28.737Z,0.00
2023-03-02T03:51:28.717Z,0.00
2023-03-02T03:52:28.703Z,0.00
2023-03-02T03:53:28.682Z,0.00
2023-03-02T03:54:28.667Z,0.00
2023-03-02T03:55:28.709Z,0.00
2023-03-02T03:56:28.634Z,0.00
2023-03-02T03:57:28.613Z,0.00
2023-03-02T03:58:28.616Z,0.00
2023-03-02T03:59:28.578Z,0.00
2023-03-02T04:00:28.563Z,0.00
2023-03-02T04:01:28.558Z,0.00
2023-03-02T04:02:28.585Z,0.00
2023-03-02T04:03:28.511Z,0.00
2023-03-02T04:04:28.501Z,0.00
2023-03-02T04:05:30.169Z,0.00
2023-03-02T04:06:28.460Z,0.00
2023-03-02T04:07:28.439Z,0.00
2023-03-02T04:08:28.427Z,0.00
2023-03-02T04:09:28.405Z,0.00
2023-03-02T04:10:28.389Z,0.00
2023-03-02T04:11:28.389Z,0.00
2023-03-02T04:12:28.361Z,0.00
2023-03-02T04:13:28.334Z,0.00
2023-03-02T04:14:28.338Z,0.00
2023-03-02T04:15:28.361Z,0.00
2023-03-02T04:16:28.286Z,0.00
2023-03-02T04:17:28.265Z,0.00
2023-03-02T04:18:28.254Z,0.00
2023-03-02T04:19:28.230Z,0.00
2023-03-02T04:20:28.225Z,0.00
2023-03-02T04:21:28.194Z,0.00
2023-03-02T04:22:28.191Z,0.00
2023-03-02T04:23:28.163Z,0.00
2023-03-02T04:24:28.149Z,0.00
2023-03-02T04:25:28.143Z,0.00
2023-03-02T04:26:28.118Z,0.00
2023-03-02T04:27:28.162Z,0.00
2023-03-02T04:28:28.086Z,0.00
2023-03-02T04:29:28.067Z,0.00
2023-03-02T04:30:28.049Z,0.00
2023-03-02T04:31:28.144Z,0.00
2023-03-02T04:32:28.052Z,0.00
2023-03-02T04:33:27.998Z,0.00
2023-03-02T04:34:27.993Z,0.00
2023-03-02T04:35:28.011Z,0.00
2023-03-02T04:36:27.957Z,0.00
2023-03-02T04:37:27.934Z,0.00
2023-03-02T04:38:27.918Z,0.00
2023-03-02T04:39:27.904Z,0.00
2023-03-02T04:40:27.885Z,0.00
2023-03-02T04:41:27.864Z,0.00
2023-03-02T04:42:27.851Z,0.00
2023-03-02T04:43:27.866Z,0.00
2023-03-02T04:44:27.817Z,0.00
2023-03-02T04:45:27.805Z,0.00
2023-03-02T04:46:27.842Z,0.00
2023-03-02T04:47:27.767Z,0.00
2023-03-02T04:48:27.751Z,0.00
2023-03-02T04:49:27.746Z,0.00
2023-03-02T04:50:27.719Z,0.00
2023-03-02T04:51:27.720Z,0.00
2023-03-02T04:52:27.683Z,0.00
2023-03-02T04:53:27.664Z,0.00
2023-03-02T04:54:27.651Z,0.00
2023-03-02T04:55:27.633Z,0.00
2023-03-02T04:56:27.621Z,0.00
2023-03-02T04:57:27.597Z,0.00
2023-03-02T04:58:27.583Z,0.00
2023-03-02T04:59:27.582Z,0.00
2023-03-02T05:00:27.548Z,0.00
2023-03-02T05:01:27.525Z,0.00
2023-03-02T05:02:27.557Z,0.00
2023-03-02T05:03:27.490Z,0.00
2023-03-02T05:04:27.587Z,0.00
2023-03-02T05:05:27.455Z,0.00
2023-03-02T05:06:27.441Z,0.00
2023-03-02T05:07:27.421Z,0.00
2023-03-02T05:08:27.410Z,0.00
2023-03-02T05:09:27.545Z,0.00
2023-03-02T05:10:27.373Z,0.00
2023-03-02T05:11:27.393Z,0.00
2023-03-02T05:12:27.337Z,0.00
2023-03-02T05:13:27.326Z,0.00
2023-03-02T05:14:27.308Z,0.00
2023-03-02T05:15:27.307Z,0.00
2023-03-02T05:16:27.283Z,0.00
2023-03-02T05:17:27.249Z,0.00
2023-03-02T05:18:27.236Z,0.00
2023-03-02T05:19:27.221Z,0.00
2023-03-02T05:20:27.200Z,0.00
2023-03-02T05:21:27.183Z,0.00
2023-03-02T05:22:27.169Z,0.00
2023-03-02T05:23:27.213Z,0.00
2023-03-02T05:24:27.132Z,0.00
2023-03-02T05:25:27.116Z,0.00
2023-03-02T05:26:27.096Z,0.00
2023-03-02T05:27:27.080Z,0.00
2023-03-02T05:28:27.061Z,0.00
2023-03-02T05:29:27.047Z,0.00
2023-03-02T05:30:27.029Z,0.00
2023-03-02T05:31:27.136Z,0.00
2023-03-02T05:32:27.018Z,0.00
2023-03-02T05:33:26.996Z,0.00
2023-03-02T05:34:26.963Z,0.00
2023-03-02T05:35:26.983Z,0.00
2023-03-02T05:36:26.968Z,0.00
2023-03-02T05:37:26.912Z,0.00
2023-03-02T05:38:26.896Z,0.00
2023-03-02T05:39:26.876Z,0.00
2023-03-02T05:40:26.856Z,0.00
2023-03-02T05:41:26.856Z,0.00
2023-03-02T05:42:26.827Z,0.00
2023-03-02T05:43:26.806Z,0.00
2023-03-02T05:44:26.786Z,0.00
2023-03-02T05:45:26.775Z,0.00
2023-03-02T05:46:26.806Z,0.00
2023-03-02T05:47:26.764Z,0.00
2023-03-02T05:48:26.719Z,0.00
2023-03-02T05:49:26.703Z,0.00
2023-03-02T05:50:26.683Z,0.00
2023-03-02T05:51:26.668Z,0.00
2023-03-02T05:52:26.664Z,0.00
2023-03-02T05:53:26.643Z,4.00
2023-03-02T05:54:26.619Z,4.00
2023-03-02T05:55:26.600Z,0.00
2023-03-02T05:56:26.580Z,0.00
2023-03-02T05:57:26.567Z,4.00
2023-03-02T05:58:26.544Z,4.00
2023-03-02T05:59:26.536Z,4.00
2023-03-02T06:00:26.508Z,4.00
2023-03-02T06:01:26.508Z,4.00
2023-03-02T06:02:26.513Z,8.00
2023-03-02T06:03:26.525Z,4.00
2023-03-02T06:04:26.449Z,8.00
2023-03-02T06:05:26.432Z,8.00
2023-03-02T06:06:26.403Z,8.00
2023-03-02T06:07:26.392Z,8.00
2023-03-02T06:08:26.371Z,12.00
2023-03-02T06:09:26.364Z,8.00
2023-03-02T06:10:26.335Z,12.00
2023-03-02T06:11:26.334Z,8.00
2023-03-02T06:12:26.303Z,12.00
2023-03-02T06:13:26.295Z,12.00
2023-03-02T06:14:26.268Z,16.00
2023-03-02T06:15:26.254Z,16.00
2023-03-02T06:16:26.297Z,16.00
2023-03-02T06:17:26.218Z,20.00
2023-03-02T06:18:26.198Z,20.00
2023-03-02T06:19:26.207Z,20.00
2023-03-02T06:20:26.164Z,20.00
2023-03-02T06:21:26.152Z,20.00
2023-03-02T06:22:26.135Z,24.00
2023-03-02T06:23:26.124Z,24.00
2023-03-02T06:24:26.095Z,28.00
2023-03-02T06:25:26.080Z,28.00
2023-03-02T06:26:26.069Z,32.00
2023-03-02T06:27:26.050Z,32.00
2023-03-02T06:28:26.029Z,32.00
2023-03-02T06:29:26.022Z,36.00
2023-03-02T06:30:26.017Z,36.00
2023-03-02T06:31:26.000Z,40.00
2023-03-02T06:32:26.030Z,36.00
2023-03-02T06:33:25.945Z,40.00
2023-03-02T06:34:25.933Z,40.00
2023-03-02T06:35:26.022Z,44.00
2023-03-02T06:36:25.945Z,44.00
2023-03-02T06:37:25.881Z,48.00
2023-03-02T06:38:25.855Z,52.00
2023-03-02T06:39:25.842Z,52.00
2023-03-02T06:40:25.821Z,56.00
2023-03-02T06:41:25.812Z,60.00
2023-03-02T06:42:25.789Z,64.00
2023-03-02T06:43:25.772Z,68.00
2023-03-02T06:44:25.755Z,68.00
2023-03-02T06:45:25.739Z,68.00
2023-03-02T06:46:25.786Z,76.00
2023-03-02T06:47:25.708Z,76.00
2023-03-02T06:48:25.684Z,80.00
2023-03-02T06:49:25.675Z,84.00
2023-03-02T06:50:25.649Z,84.00
2023-03-02T06:51:25.653Z,84.00
2023-03-02T06:52:25.620Z,88.00
2023-03-02T06:53:25.601Z,88.00
2023-03-02T06:54:25.583Z,96.00
2023-03-02T06:55:25.569Z,92.00
2023-03-02T06:56:25.546Z,96.00
2023-03-02T06:58:25.516Z,104.00
2023-03-02T06:59:25.500Z,112.00
2023-03-02T07:00:26.102Z,108.00
2023-03-02T07:01:25.520Z,108.00
2023-03-02T07:02:25.448Z,112.00
2023-03-02T07:03:25.523Z,108.00
2023-03-02T07:04:25.416Z,108.00
2023-03-02T07:05:25.391Z,116.00
2023-03-02T07:06:25.377Z,124.00
2023-03-02T07:07:25.385Z,128.00
2023-03-02T07:08:25.345Z,132.00
2023-03-02T07:09:25.322Z,132.00
2023-03-02T07:10:25.310Z,136.00
2023-03-02T07:11:25.291Z,140.00
2023-03-02T07:12:25.275Z,144.00
2023-03-02T07:13:25.263Z,148.00
2023-03-02T07:14:25.239Z,152.00
2023-03-02T07:15:25.219Z,152.00
2023-03-02T07:16:25.251Z,156.00
2023-03-02T07:17:25.193Z,156.00
2023-03-02T07:18:25.172Z,156.00
2023-03-02T07:19:25.158Z,152.00
2023-03-02T07:20:25.136Z,156.00
2023-03-02T07:21:25.119Z,160.00
2023-03-02T07:22:25.109Z,168.00
2023-03-02T07:23:25.107Z,176.00
2023-03-02T07:24:25.086Z,184.00
2023-03-02T07:25:25.050Z,192.00
2023-03-02T07:26:25.037Z,196.00
2023-03-02T07:27:25.016Z,208.00
2023-03-02T07:28:25.002Z,208.00
2023-03-02T07:29:24.979Z,208.00
2023-03-02T07:30:24.965Z,212.00
2023-03-02T07:31:24.945Z,208.00
2023-03-02T07:32:24.970Z,212.00
2023-03-02T07:33:25.212Z,220.00
2023-03-02T07:34:24.899Z,224.00
2023-03-02T07:35:24.928Z,236.00
2023-03-02T07:36:24.865Z,248.00
2023-03-02T07:37:24.844Z,256.00
2023-03-02T07:38:24.831Z,264.00
2023-03-02T07:39:24.834Z,272.00
2023-03-02T07:40:24.841Z,284.00
2023-03-02T07:41:24.776Z,296.00
2023-03-02T07:42:24.767Z,308.00
2023-03-02T07:43:24.745Z,320.00
2023-03-02T07:44:24.734Z,332.00
2023-03-02T07:45:24.710Z,336.00
2023-03-02T07:46:24.717Z,336.00
2023-03-02T07:47:24.677Z,332.00
2023-03-02T07:48:24.663Z,328.00
2023-03-02T07:49:24.645Z,332.00
2023-03-02T07:50:24.641Z,340.00
2023-03-02T07:51:24.610Z,344.00
2023-03-02T07:52:24.597Z,356.00
2023-03-02T07:53:24.577Z,372.00
2023-03-02T07:54:24.564Z,380.00
2023-03-02T07:55:24.560Z,384.00
2023-03-02T07:56:24.528Z,392.00
2023-03-02T07:57:24.514Z,396.00
2023-03-02T07:58:24.502Z,388.00
2023-03-02T07:59:24.479Z,384.00
2023-03-02T08:00:24.462Z,384.00
2023-03-02T08:01:24.529Z,400.00
2023-03-02T08:02:24.462Z,408.00
2023-03-02T08:03:24.410Z,412.00
2023-03-02T08:04:24.399Z,416.00
2023-03-02T08:05:24.376Z,428.00
2023-03-02T08:06:24.364Z,436.00
2023-03-02T08:07:24.341Z,444.00
2023-03-02T08:08:24.339Z,444.00
2023-03-02T08:09:24.311Z,440.00
2023-03-02T08:10:24.302Z,440.00
2023-03-02T08:11:24.299Z,452.00
2023-03-02T08:12:24.266Z,460.00
2023-03-02T08:13:24.244Z,464.00
2023-03-02T08:14:24.231Z,476.00
2023-03-02T08:15:24.209Z,488.00
2023-03-02T08:16:24.256Z,496.00
2023-03-02T08:17:24.182Z,500.00
2023-03-02T08:18:24.167Z,496.00
2023-03-02T08:19:24.147Z,492.00
2023-03-02T08:20:24.132Z,496.00
2023-03-02T08:21:24.110Z,492.00
2023-03-02T08:22:24.098Z,500.00
2023-03-02T08:23:24.149Z,516.00
2023-03-02T08:24:24.069Z,532.00
2023-03-02T08:25:24.048Z,540.00
2023-03-02T08:26:24.032Z,540.00
2023-03-02T08:27:24.038Z,536.00
2023-03-02T08:28:24.001Z,532.00
2023-03-02T08:29:23.979Z,540.00
2023-03-02T08:30:23.979Z,552.00
2023-03-02T08:31:24.007Z,568.00
2023-03-02T08:32:24.007Z,592.00
2023-03-02T08:33:23.917Z,612.00
2023-03-02T08:34:23.900Z,624.00
2023-03-02T08:35:23.903Z,632.00
2023-03-02T08:36:23.867Z,636.00
2023-03-02T08:37:23.859Z,632.00
2023-03-02T08:38:23.837Z,628.00
2023-03-02T08:39:23.835Z,628.00
2023-03-02T08:40:23.801Z,636.00
2023-03-02T08:41:23.780Z,644.00
2023-03-02T08:42:23.768Z,668.00
2023-03-02T08:43:23.771Z,692.00
2023-03-02T08:44:23.750Z,692.00
2023-03-02T08:45:23.798Z,676.00
2023-03-02T08:46:23.703Z,676.00
2023-03-02T08:47:23.688Z,688.00
2023-03-02T08:48:23.666Z,684.00
2023-03-02T08:49:23.655Z,672.00
2023-03-02T08:50:23.632Z,656.00
2023-03-02T08:51:23.620Z,660.00
2023-03-02T08:52:23.597Z,692.00
2023-03-02T08:53:23.577Z,712.00
2023-03-02T08:54:23.564Z,720.00
2023-03-02T08:55:23.621Z,712.00
2023-03-02T08:56:23.535Z,688.00
2023-03-02T08:57:23.511Z,672.00
2023-03-02T08:58:23.499Z,672.00
2023-03-02T08:59:23.507Z,668.00
2023-03-02T09:00:23.468Z,672.00
2023-03-02T09:01:23.547Z,684.00
2023-03-02T09:02:23.428Z,684.00
2023-03-02T09:03:23.408Z,684.00
2023-03-02T09:04:23.424Z,688.00
2023-03-02T09:05:23.376Z,688.00
2023-03-02T09:06:23.367Z,676.00
2023-03-02T09:07:23.347Z,684.00
2023-03-02T09:08:23.328Z,704.00
2023-03-02T09:09:23.309Z,708.00
2023-03-02T09:10:23.308Z,704.00
2023-03-02T09:11:23.276Z,708.00
2023-03-02T09:12:23.261Z,736.00
2023-03-02T09:13:23.241Z,760.00
2023-03-02T09:14:23.229Z,776.00
2023-03-02T09:15:23.232Z,788.00
2023-03-02T09:16:23.251Z,784.00
2023-03-02T09:17:23.175Z,788.00
2023-03-02T09:18:23.163Z,780.00
2023-03-02T09:19:23.145Z,772.00
2023-03-02T09:20:23.135Z,756.00
2023-03-02T09:21:23.110Z,752.00
2023-03-02T09:22:23.097Z,744.00
2023-03-02T09:23:23.078Z,740.00
2023-03-02T09:24:23.066Z,752.00
2023-03-02T09:25:23.044Z,776.00
2023-03-02T09:26:23.034Z,800.00
2023-03-02T09:27:23.074Z,828.00
2023-03-02T09:28:23.003Z,848.00
2023-03-02T09:29:22.983Z,860.00
2023-03-02T09:30:22.967Z,864.00
2023-03-02T09:31:23.113Z,856.00
2023-03-02T09:32:23.069Z,844.00
2023-03-02T09:33:22.912Z,844.00
2023-03-02T09:34:22.898Z,840.00
2023-03-02T09:35:22.880Z,844.00
2023-03-02T09:36:22.925Z,860.00
2023-03-02T09:37:22.851Z,876.00
2023-03-02T09:38:22.829Z,896.00
2023-03-02T09:39:22.816Z,920.00
2023-03-02T09:40:22.794Z,948.00
2023-03-02T09:41:22.785Z,964.00
2023-03-02T09:42:25.459Z,984.00
2023-03-02T09:43:22.759Z,980.00
2023-03-02T09:44:22.733Z,956.00
2023-03-02T09:45:22.731Z,928.00
2023-03-02T09:46:22.820Z,916.00
2023-03-02T09:47:34.801Z,908.00
2023-03-02T09:48:22.664Z,900.00
2023-03-02T09:49:22.654Z,892.00
2023-03-02T09:50:22.640Z,876.00
2023-03-02T09:51:22.617Z,892.00
2023-03-02T09:52:22.597Z,848.00
2023-03-02T09:53:22.583Z,784.00
2023-03-02T09:54:22.605Z,812.00
2023-03-02T09:55:22.550Z,804.00
2023-03-02T09:56:22.588Z,824.00
2023-03-02T09:57:22.586Z,808.00
2023-03-02T09:58:22.531Z,760.00
2023-03-02T09:59:22.482Z,796.00
2023-03-02T10:00:22.468Z,852.00
2023-03-02T10:01:22.452Z,856.00
2023-03-02T10:02:22.443Z,860.00
2023-03-02T10:03:22.495Z,872.00
2023-03-02T10:04:22.592Z,884.00
2023-03-02T10:05:22.387Z,880.00
2023-03-02T10:06:22.383Z,872.00
2023-03-02T10:07:22.356Z,892.00
2023-03-02T10:08:22.341Z,900.00
2023-03-02T10:09:22.326Z,888.00
2023-03-02T10:10:22.306Z,892.00
2023-03-02T10:11:22.299Z,872.00
2023-03-02T10:12:22.271Z,816.00
2023-03-02T10:13:22.258Z,808.00
2023-03-02T10:14:22.254Z,832.00
2023-03-02T10:15:22.238Z,764.00
2023-03-02T10:16:22.245Z,776.00
2023-03-02T10:17:22.195Z,840.00
2023-03-02T10:18:22.181Z,876.00
2023-03-02T10:19:22.181Z,840.00
2023-03-02T10:20:22.149Z,776.00
2023-03-02T10:21:22.127Z,756.00
2023-03-02T10:22:22.112Z,704.00
2023-03-02T10:23:22.099Z,848.00
2023-03-02T10:24:22.077Z,880.00
2023-03-02T10:25:22.068Z,796.00
2023-03-02T10:26:22.070Z,668.00
2023-03-02T10:27:22.041Z,700.00
2023-03-02T10:28:22.016Z,812.00
2023-03-02T10:29:22.005Z,676.00
2023-03-02T10:30:21.980Z,568.00
2023-03-02T10:31:21.985Z,588.00
2023-03-02T10:32:21.981Z,776.00
2023-03-02T10:33:21.935Z,856.00
2023-03-02T10:34:21.915Z,944.00
2023-03-02T10:35:21.967Z,992.00
2023-03-02T10:36:21.883Z,984.00
2023-03-02T10:37:21.955Z,1000.00
2023-03-02T10:38:21.858Z,976.00
2023-03-02T10:39:21.842Z,896.00
2023-03-02T10:40:21.818Z,856.00
2023-03-02T10:41:21.805Z,768.00
2023-03-02T10:42:21.846Z,840.00
2023-03-02T10:43:21.774Z,840.00
2023-03-02T10:44:21.756Z,796.00
2023-03-02T10:45:21.746Z,940.00
2023-03-02T10:46:21.787Z,1136.00
2023-03-02T10:47:21.711Z,1184.00
2023-03-02T10:48:21.693Z,1200.00
2023-03-02T10:49:21.678Z,1216.00
2023-03-02T10:50:21.675Z,1208.00
2023-03-02T10:51:21.664Z,1220.00
2023-03-02T10:52:21.637Z,1176.00
2023-03-02T10:53:21.617Z,1112.00
2023-03-02T10:54:21.596Z,1072.00
2023-03-02T10:55:21.584Z,1108.00
2023-03-02T10:56:21.568Z,1104.00
2023-03-02T10:57:21.557Z,1092.00
2023-03-02T10:58:21.538Z,1064.00
2023-03-02T10:59:21.520Z,1160.00
2023-03-02T11:00:21.503Z,1280.00
2023-03-02T11:01:21.543Z,1176.00
2023-03-02T11:02:21.468Z,1080.00
2023-03-02T11:03:21.471Z,1008.00
2023-03-02T11:04:21.478Z,928.00
2023-03-02T11:05:21.427Z,864.00
2023-03-02T11:06:21.406Z,828.00
2023-03-02T11:07:21.427Z,844.00
2023-03-02T11:08:21.374Z,956.00
2023-03-02T11:09:21.360Z,1072.00
2023-03-02T11:10:21.340Z,968.00
2023-03-02T11:11:21.451Z,872.00
2023-03-02T11:12:21.310Z,860.00
2023-03-02T11:13:21.296Z,828.00
2023-03-02T11:14:21.280Z,872.00
2023-03-02T11:15:21.264Z,892.00
2023-03-02T11:16:21.317Z,844.00
2023-03-02T11:17:21.232Z,752.00
2023-03-02T11:18:21.216Z,664.00
2023-03-02T11:19:21.202Z,712.00
2023-03-02T11:20:21.181Z,884.00
2023-03-02T11:21:21.166Z,992.00
2023-03-02T11:22:21.148Z,1048.00
2023-03-02T11:23:21.160Z,1040.00
2023-03-02T11:24:21.115Z,996.00
2023-03-02T11:25:21.106Z,984.00
2023-03-02T11:26:21.093Z,952.00
2023-03-02T11:27:21.071Z,944.00
2023-03-02T11:28:21.054Z,952.00
2023-03-02T11:29:22.741Z,940.00
2023-03-02T11:30:21.030Z,900.00
2023-03-02T11:31:21.077Z,844.00
2023-03-02T11:32:21.060Z,792.00
2023-03-02T11:33:20.994Z,780.00
2023-03-02T11:34:21.147Z,872.00
2023-03-02T11:35:22.531Z,956.00
2023-03-02T11:36:20.929Z,920.00
2023-03-02T11:37:20.912Z,896.00
2023-03-02T11:38:20.893Z,892.00
2023-03-02T11:39:20.920Z,940.00
2023-03-02T11:40:20.869Z,1004.00
2023-03-02T11:41:20.848Z,1012.00
2023-03-02T11:42:20.883Z,1016.00
2023-03-02T11:43:20.818Z,988.00
2023-03-02T11:44:20.803Z,1016.00
2023-03-02T11:45:20.795Z,1040.00
2023-03-02T11:46:22.669Z,1044.00
2023-03-02T11:47:20.835Z,1056.00
2023-03-02T11:48:20.737Z,1072.00
2023-03-02T11:49:20.724Z,1076.00
2023-03-02T11:50:20.705Z,1060.00
2023-03-02T11:51:20.693Z,1044.00
2023-03-02T11:52:20.674Z,1004.00
2023-03-02T11:53:20.689Z,992.00
2023-03-02T11:54:20.643Z,976.00
2023-03-02T11:55:20.650Z,1028.00
2023-03-02T11:56:20.617Z,1072.00
2023-03-02T11:57:20.599Z,1088.00
2023-03-02T11:58:20.627Z,1080.00
2023-03-02T11:59:20.585Z,1044.00
2023-03-02T12:00:20.551Z,1016.00
2023-03-02T12:01:20.537Z,1044.00
2023-03-02T12:02:20.570Z,1068.00
2023-03-02T12:03:20.511Z,1060.00
2023-03-02T12:04:20.486Z,1056.00
2023-03-02T12:05:20.556Z,1056.00
2023-03-02T12:06:20.454Z,1032.00
2023-03-02T12:07:20.446Z,996.00
2023-03-02T12:08:20.422Z,992.00
2023-03-02T12:09:20.436Z,1036.00
2023-03-02T12:10:20.418Z,1056.00
2023-03-02T12:11:20.571Z,1056.00
2023-03-02T12:12:20.362Z,1056.00
2023-03-02T12:13:20.350Z,1076.00
2023-03-02T12:14:20.330Z,1080.00
2023-03-02T12:15:20.320Z,1076.00
2023-03-02T12:16:20.370Z,1072.00
2023-03-02T12:17:20.317Z,1060.00
2023-03-02T12:18:20.302Z,1060.00
2023-03-02T12:19:20.256Z,1076.00
2023-03-02T12:20:20.260Z,1092.00
2023-03-02T12:21:20.228Z,1112.00
2023-03-02T12:22:20.208Z,1116.00
2023-03-02T12:23:20.197Z,1096.00
2023-03-02T12:24:20.202Z,1068.00
2023-03-02T12:25:20.199Z,1068.00
2023-03-02T12:26:20.156Z,1076.00
2023-03-02T12:27:20.251Z,1072.00
2023-03-02T12:28:20.188Z,1084.00
2023-03-02T12:29:20.147Z,1100.00
2023-03-02T12:30:20.235Z,1112.00
2023-03-02T12:31:20.109Z,1112.00
2023-03-02T12:32:20.106Z,1100.00
2023-03-02T12:33:20.092Z,1096.00
2023-03-02T12:34:20.084Z,1092.00
2023-03-02T12:35:20.134Z,1100.00
2023-03-02T12:36:19.991Z,1116.00
2023-03-02T12:37:19.983Z,1136.00
2023-03-02T12:38:19.991Z,1156.00
2023-03-02T12:39:19.950Z,1160.00
2023-03-02T12:40:20.021Z,1148.00
2023-03-02T12:41:19.918Z,1136.00
2023-03-02T12:42:19.917Z,1116.00
2023-03-02T12:43:20.005Z,1092.00
2023-03-02T12:44:19.870Z,1088.00
2023-03-02T12:45:19.861Z,1088.00
2023-03-02T12:46:19.908Z,1084.00
2023-03-02T12:47:20.519Z,1076.00
2023-03-02T12:48:20.037Z,1072.00
2023-03-02T12:49:19.794Z,1060.00
2023-03-02T12:50:19.795Z,1048.00
2023-03-02T12:51:19.904Z,1044.00
2023-03-02T12:52:21.648Z,1036.00